Time;durP1;ratioP1;P1;durP2;ratioP2;P2;SDS_P1;SDS_P2;PMS_P1;PMS_P2;Temp;Humidity;BMP_temperature;BMP_pressure;BME280_temperature;BME280_humidity;BME280_pressure;Samples;Min_cycle;Max_cycle;Signal;HPM_P1;HPM_P2
2022/05/31 03:02:25;;;;;;;5.57;3.80;;;8.70;99.90;;;;;;6272598;22;20024;-76
2022/05/31 03:04:51;;;;;;;4.68;3.45;;;8.70;99.90;;;;;;6277607;22;20004;-76
2022/05/31 03:07:17;;;;;;;6.60;3.53;;;8.80;99.90;;;;;;6249513;22;20022;-77
2022/05/31 03:09:42;;;;;;;5.80;3.15;;;8.80;99.90;;;;;;6249736;22;20016;-77
2022/05/31 03:12:14;;;;;;;6.82;3.50;;;8.80;99.90;;;;;;6276533;22;20086;-75
2022/05/31 03:14:49;;;;;;;5.38;3.55;;;8.80;99.90;;;;;;6249599;22;20011;-77
2022/05/31 03:17:30;;;;;;;7.35;3.90;;;8.90;99.90;;;;;;6276648;22;20012;-75
2022/05/31 03:20:05;;;;;;;6.60;4.15;;;8.90;99.90;;;;;;6249729;22;20015;-77
2022/05/31 03:22:41;;;;;;;6.43;3.63;;;8.90;99.90;;;;;;6249547;22;20022;-77
2022/05/31 03:25:08;;;;;;;;;;;8.90;99.90;;;;;;6277588;22;20007;-77
2022/05/31 03:27:35;;;;;;;7.30;4.28;;;9.00;99.90;;;;;;6277124;22;19915;-77
2022/05/31 03:30:03;;;;;;;6.15;4.13;;;8.90;99.90;;;;;;6249453;22;20011;-76
2022/05/31 03:32:30;;;;;;;6.30;4.18;;;9.00;99.90;;;;;;6249039;22;20110;-76
2022/05/31 03:34:57;;;;;;;6.35;4.22;;;8.90;99.90;;;;;;6276271;22;20012;-77
2022/05/31 03:37:22;;;;;;;7.72;4.10;;;8.90;99.90;;;;;;6276949;22;20061;-77
2022/05/31 03:39:48;;;;;;;8.45;4.35;;;8.90;99.90;;;;;;6276172;22;20034;-78
2022/05/31 03:42:13;;;;;;;6.47;3.88;;;9.00;99.90;;;;;;6248793;22;20099;-77
2022/05/31 03:44:39;;;;;;;9.20;5.07;;;9.00;99.90;;;;;;6248741;22;20019;-77
2022/05/31 03:47:05;;;;;;;7.20;4.10;;;9.00;99.90;;;;;;6276799;22;20019;-76
2022/05/31 03:49:32;;;;;;;6.10;4.25;;;9.00;99.90;;;;;;6249318;22;20441;-76
2022/05/31 03:51:58;;;;;;;9.10;4.32;;;9.00;99.90;;;;;;6276359;22;20011;-76
2022/05/31 03:54:24;;;;;;;8.40;4.53;;;9.00;99.90;;;;;;6276849;22;20008;-76
2022/05/31 03:56:49;;;;;;;7.18;4.30;;;9.00;99.90;;;;;;6249323;22;20026;-78
2022/05/31 03:59:15;;;;;;;6.47;3.92;;;9.00;99.90;;;;;;6249436;22;20019;-77
2022/05/31 04:01:40;;;;;;;6.82;4.30;;;9.00;99.90;;;;;;6276328;22;20050;-76
2022/05/31 04:04:06;;;;;;;8.02;4.47;;;9.00;99.90;;;;;;6276769;22;20047;-76
2022/05/31 04:06:32;;;;;;;8.45;4.85;;;9.00;99.90;;;;;;6250022;22;20038;-77
2022/05/31 04:08:58;;;;;;;7.78;4.70;;;9.00;99.90;;;;;;6224101;22;20134;-77
2022/05/31 04:11:24;;;;;;;9.35;4.88;;;9.00;99.90;;;;;;6249188;22;20086;-76
2022/05/31 04:13:50;;;;;;;6.30;4.50;;;9.00;99.90;;;;;;6249334;22;20113;-76
2022/05/31 04:16:17;;;;;;;5.78;4.13;;;9.00;99.90;;;;;;6249289;22;20027;-76
2022/05/31 04:18:43;;;;;;;5.63;4.13;;;9.00;99.90;;;;;;6276684;22;20012;-75
2022/05/31 04:21:12;;;;;;;7.78;4.63;;;9.00;99.90;;;;;;6249080;22;20012;-76
2022/05/31 04:26:23;;;;;;;7.55;4.95;;;9.00;99.90;;;;;;6249962;22;20023;-78
2022/05/31 04:28:48;;;;;;;7.65;4.15;;;9.00;99.90;;;;;;6276603;22;20425;-75
2022/05/31 04:31:14;;;;;;;10.77;4.47;;;9.10;99.90;;;;;;6276182;22;20007;-77
2022/05/31 04:33:40;;;;;;;7.75;4.53;;;9.10;99.90;;;;;;6276219;22;20007;-76
2022/05/31 04:36:11;;;;;;;6.80;4.60;;;9.10;99.90;;;;;;6249205;22;20054;-76
2022/05/31 04:38:38;;;;;;;6.22;4.30;;;9.10;99.90;;;;;;6249039;22;20034;-76
2022/05/31 04:41:06;;;;;;;6.72;4.22;;;9.10;99.90;;;;;;6278096;22;20039;-75
2022/05/31 04:43:32;;;;;;;7.13;4.68;;;9.20;99.90;;;;;;6278307;22;20105;-76
2022/05/31 04:46:18;;;;;;;7.75;4.50;;;9.20;99.90;;;;;;6276620;22;20015;-77
2022/05/31 04:48:44;;;;;;;;;;;9.20;99.90;;;;;;6249387;22;20023;-76
2022/05/31 04:51:11;;;;;;;;;;;9.20;99.90;;;;;;6249970;22;19911;-75
2022/05/31 04:53:37;;;;;;;11.68;4.20;;;9.20;99.90;;;;;;6276929;22;20320;-77
2022/05/31 04:56:05;;;;;;;6.47;4.28;;;9.30;99.90;;;;;;6250725;22;20008;-76
2022/05/31 04:58:31;;;;;;;6.60;4.47;;;9.30;99.90;;;;;;6250855;22;20022;-76
2022/05/31 05:00:57;;;;;;;7.65;4.70;;;9.30;99.90;;;;;;6250654;22;20016;-76
2022/05/31 05:03:22;;;;;;;6.38;4.25;;;9.40;99.90;;;;;;6225517;22;20016;-76
2022/05/31 05:05:48;;;;;;;6.07;4.60;;;9.40;99.90;;;;;;6278252;22;20015;-76
2022/05/31 05:08:14;;;;;;;7.05;4.50;;;9.40;99.90;;;;;;6278066;22;20405;-75
2022/05/31 05:10:46;;;;;;;8.95;4.70;;;9.40;99.90;;;;;;6277898;22;20392;-77
2022/05/31 05:13:12;;;;;;;7.60;5.10;;;9.50;99.90;;;;;;6277864;22;20008;-75
2022/05/31 05:15:39;;;;;;;6.40;4.65;;;9.50;99.90;;;;;;6277711;22;20010;-77
2022/05/31 05:18:05;;;;;;;6.95;4.47;;;9.50;99.90;;;;;;6278046;22;20079;-78
2022/05/31 05:20:34;;;;;;;7.13;4.57;;;9.60;99.90;;;;;;6278016;22;20012;-76
2022/05/31 05:23:00;;;;;;;6.32;4.28;;;9.60;99.90;;;;;;6250475;22;20454;-75
2022/05/31 05:25:25;;;;;;;5.97;3.83;;;9.70;99.90;;;;;;6277805;22;20046;-76
2022/05/31 05:27:51;;;;;;;6.85;4.68;;;9.70;99.90;;;;;;6250389;22;20014;-76
2022/05/31 05:33:00;;;;;;;9.63;5.00;;;9.80;99.90;;;;;;6250258;22;20433;-76
2022/05/31 05:35:26;;;;;;;11.55;4.55;;;9.80;99.90;;;;;;6250555;22;20069;-76
2022/05/31 05:37:51;;;;;;;8.43;4.80;;;9.90;99.90;;;;;;6250435;22;20341;-76
2022/05/31 05:40:17;;;;;;;7.65;4.43;;;9.90;99.90;;;;;;6250300;22;20030;-75
2022/05/31 05:42:42;;;;;;;7.97;4.65;;;9.90;99.90;;;;;;6250487;22;20394;-76
2022/05/31 05:45:10;;;;;;;7.60;5.10;;;10.00;99.90;;;;;;6277801;22;20016;-76
2022/05/31 05:47:35;;;;;;;6.43;4.53;;;10.00;99.90;;;;;;6277672;22;20091;-76
2022/05/31 05:50:02;;;;;;;6.43;4.50;;;10.10;99.90;;;;;;6250413;22;20452;-76
2022/05/31 05:52:28;;;;;;;6.90;4.80;;;10.10;99.90;;;;;;6277737;22;20035;-76
2022/05/31 05:54:53;;;;;;;7.38;4.22;;;10.10;99.90;;;;;;6250257;22;20429;-76
2022/05/31 05:57:19;;;;;;;8.68;4.30;;;10.20;99.90;;;;;;6250252;22;20155;-76
2022/05/31 05:59:44;;;;;;;5.90;4.25;;;10.20;99.90;;;;;;6250288;22;20345;-77
2022/05/31 06:02:23;;;;;;;8.98;4.43;;;10.20;99.90;;;;;;6249996;22;20015;-77
2022/05/31 06:05:02;;;;;;;7.90;4.90;;;10.30;99.90;;;;;;6250188;22;20137;-76
2022/05/31 06:07:36;;;;;;;8.18;4.78;;;10.30;99.90;;;;;;6250530;22;20012;-75
2022/05/31 06:10:13;;;;;;;6.72;4.07;;;10.30;99.90;;;;;;6277628;22;20050;-75
2022/05/31 06:12:43;;;;;;;5.85;4.50;;;10.40;99.90;;;;;;6249963;22;20011;-77
2022/05/31 06:15:20;;;;;;;8.85;4.35;;;10.50;99.90;;;;;;6277864;22;20012;-77
2022/05/31 06:17:48;;;;;;;5.68;3.95;;;10.50;99.90;;;;;;6250127;22;20023;-77
2022/05/31 06:20:15;;;;;;;6.15;4.00;;;10.60;99.90;;;;;;6249929;22;20011;-76
2022/05/31 06:22:41;;;;;;;7.53;4.22;;;10.70;99.90;;;;;;6249969;22;20019;-76
2022/05/31 06:25:10;;;;;;;10.18;4.30;;;10.70;99.90;;;;;;6250796;22;20019;-76
2022/05/31 06:27:36;;;;;;;7.32;3.95;;;10.70;99.90;;;;;;6276910;22;20432;-76
2022/05/31 06:30:04;;;;;;;7.45;4.18;;;10.80;99.90;;;;;;6276980;22;20087;-77
2022/05/31 06:32:30;;;;;;;6.82;3.80;;;10.90;99.90;;;;;;6276869;22;20012;-75
2022/05/31 06:34:55;;;;;;;5.78;3.47;;;11.00;99.90;;;;;;6249973;22;20018;-76
2022/05/31 06:37:21;;;;;;;6.70;4.00;;;11.00;99.90;;;;;;6249914;22;20022;-75
2022/05/31 06:39:47;;;;;;;7.25;3.30;;;11.10;99.90;;;;;;6249932;22;20023;-76
2022/05/31 06:42:13;;;;;;;7.32;3.55;;;11.10;99.90;;;;;;6277242;22;20012;-77
2022/05/31 06:44:41;;;;;;;6.68;3.42;;;11.10;99.90;;;;;;6224542;22;20011;-77
2022/05/31 06:47:07;;;;;;;7.88;3.72;;;11.20;99.90;;;;;;6277180;22;20011;-76
2022/05/31 06:49:34;;;;;;;4.95;3.03;;;11.20;99.90;;;;;;6249795;22;20404;-76
2022/05/31 06:57:33;;;;;;;6.22;3.35;;;11.20;99.90;;;;;;6249697;22;20327;-75
2022/05/31 06:59:58;;;;;;;6.03;3.42;;;11.30;99.90;;;;;;6276818;22;20018;-76
2022/05/31 07:02:25;;;;;;;4.65;2.97;;;11.30;99.90;;;;;;6276694;22;20016;-77
2022/05/31 07:04:51;;;;;;;5.22;2.75;;;11.40;99.90;;;;;;6249610;22;20430;-77
2022/05/31 07:07:16;;;;;;;7.32;3.13;;;11.50;99.90;;;;;;6249627;22;20015;-77
2022/05/31 07:09:42;;;;;;;5.70;3.20;;;11.50;99.90;;;;;;6249746;22;20425;-76
2022/05/31 07:12:08;;;;;;;5.40;2.90;;;11.60;99.90;;;;;;6249396;22;20015;-77
2022/05/31 07:14:33;;;;;;;9.32;3.10;;;11.70;99.90;;;;;;6276353;22;20450;-76
2022/05/31 07:16:59;;;;;;;7.10;2.70;;;11.80;99.90;;;;;;6276158;22;20062;-76
2022/05/31 07:19:24;;;;;;;4.57;2.70;;;11.90;99.90;;;;;;6276302;22;20016;-76
2022/05/31 07:21:50;;;;;;;4.88;2.72;;;12.00;99.90;;;;;;6249273;22;20476;-77
2022/05/31 07:24:16;;;;;;;4.93;2.58;;;12.10;99.90;;;;;;6249623;22;20019;-76
2022/05/31 07:26:42;;;;;;;6.85;2.80;;;12.20;99.90;;;;;;6276978;22;20022;-78
2022/05/31 07:29:09;;;;;;;6.90;3.35;;;12.30;99.90;;;;;;6276605;22;20413;-76
2022/05/31 07:31:36;;;;;;;5.35;2.90;;;12.40;99.90;;;;;;6249481;22;20311;-76
2022/05/31 07:34:02;;;;;;;6.43;3.00;;;12.40;99.90;;;;;;6249495;22;20318;-76
2022/05/31 07:36:28;;;;;;;4.20;2.88;;;12.50;99.90;;;;;;6249447;22;20016;-76
2022/05/31 07:38:54;;;;;;;6.95;3.72;;;12.70;99.90;;;;;;6276891;22;20486;-77
2022/05/31 07:41:20;;;;;;;6.43;2.85;;;12.70;99.90;;;;;;6249384;22;20010;-77
2022/05/31 07:43:45;;;;;;;8.52;3.22;;;12.80;99.90;;;;;;6276226;22;20015;-76
2022/05/31 07:46:13;;;;;;;7.65;2.78;;;12.90;99.90;;;;;;6273914;22;20008;-76
2022/05/31 07:48:39;;;;;;;7.20;3.25;;;13.00;99.90;;;;;;6249262;22;20423;-77
2022/05/31 07:51:05;;;;;;;28.25;5.63;;;13.10;99.90;;;;;;6247188;22;20008;-75
2022/05/31 07:53:31;;;;;;;7.57;3.10;;;13.20;99.90;;;;;;6275355;22;20014;-76
2022/05/31 07:56:06;;;;;;;11.48;4.80;;;13.20;99.90;;;;;;6249389;22;20042;-76
2022/05/31 07:58:36;;;;;;;9.48;3.72;;;13.30;99.90;;;;;;6250347;22;20472;-75
2022/05/31 08:01:04;;;;;;;6.65;3.47;;;13.40;99.90;;;;;;6276631;22;20326;-78
2022/05/31 08:03:31;;;;;;;7.47;3.70;;;13.50;99.90;;;;;;6277031;22;20272;-78
2022/05/31 08:05:57;;;;;;;9.02;3.10;;;13.60;99.90;;;;;;6224176;22;20016;-76
2022/05/31 08:08:24;;;;;;;6.90;3.72;;;13.70;99.90;;;;;;6223852;22;20442;-77
2022/05/31 08:10:49;;;;;;;5.72;3.70;;;13.80;99.90;;;;;;6249181;22;20016;-76
2022/05/31 08:13:15;;;;;;;4.85;3.58;;;13.90;99.90;;;;;;6249403;22;20071;-77
2022/05/31 08:15:41;;;;;;;10.48;4.20;;;14.00;99.90;;;;;;6249265;22;20457;-75
2022/05/31 08:18:07;;;;;;;10.95;3.95;;;14.10;99.90;;;;;;6276846;22;20018;-74
2022/05/31 08:20:32;;;;;;;6.28;3.95;;;14.30;99.90;;;;;;6277410;22;20326;-75
2022/05/31 08:23:00;;;;;;;8.00;4.00;;;14.60;99.90;;;;;;6252410;22;20011;-74
2022/05/31 08:25:25;;;;;;;7.07;3.95;;;14.80;99.90;;;;;;6280078;22;20023;-75
2022/05/31 08:27:51;;;;;;;5.57;3.90;;;14.80;99.90;;;;;;6282074;22;20012;-75
2022/05/31 08:30:17;;;;;;;6.90;3.83;;;14.80;99.90;;;;;;6252128;22;20413;-74
2022/05/31 08:32:42;;;;;;;7.95;3.88;;;14.80;99.90;;;;;;6252393;22;20019;-76
2022/05/31 08:35:08;;;;;;;8.50;3.80;;;14.90;99.90;;;;;;6254145;22;20012;-75
2022/05/31 08:37:34;;;;;;;7.72;3.60;;;15.00;99.90;;;;;;6279092;22;20015;-76
2022/05/31 08:39:59;;;;;;;8.18;3.42;;;15.10;99.90;;;;;;6251151;22;20015;-77
2022/05/31 08:42:45;;;;;;;7.05;3.70;;;15.10;99.90;;;;;;6250824;22;20020;-77
2022/05/31 08:45:29;;;;;;;6.38;3.63;;;15.20;99.90;;;;;;6250920;22;20441;-76
2022/05/31 08:48:24;;;;;;;5.28;3.53;;;15.20;99.90;;;;;;6250937;22;20091;-79
2022/05/31 08:56:59;;;;;;;10.35;4.05;;;15.80;99.90;;;;;;6250892;22;20019;-77
2022/05/31 08:59:29;;;;;;;7.78;4.53;;;15.90;99.90;;;;;;6250921;22;20039;-77
2022/05/31 09:01:59;;;;;;;7.28;3.97;;;16.20;99.90;;;;;;6250618;22;20026;-78
2022/05/31 09:04:41;;;;;;;8.95;4.15;;;16.30;99.90;;;;;;6250714;22;20015;-78
2022/05/31 09:07:16;;;;;;;6.03;4.10;;;16.30;99.90;;;;;;6250879;22;20034;-77
2022/05/31 09:09:52;;;;;;;7.53;3.67;;;16.30;99.90;;;;;;6250781;22;20011;-78
2022/05/31 09:12:27;;;;;;;10.20;4.07;;;16.20;99.90;;;;;;6250745;22;20011;-77
2022/05/31 09:15:09;;;;;;;12.00;4.60;;;16.20;99.90;;;;;;6250661;22;20011;-78
2022/05/31 09:18:04;;;;;;;6.43;3.90;;;16.20;99.90;;;;;;6250753;22;20129;-78
2022/05/31 09:20:33;;;;;;;7.80;4.60;;;16.10;99.90;;;;;;6250620;22;20069;-77
2022/05/31 09:22:59;;;;;;;8.05;4.28;;;16.10;99.90;;;;;;6225488;22;20083;-77
2022/05/31 09:25:27;;;;;;;7.43;3.80;;;16.20;99.90;;;;;;6251890;22;20092;-76
2022/05/31 09:27:53;;;;;;;7.53;3.40;;;16.20;99.90;;;;;;6279984;22;20016;-77
2022/05/31 09:30:28;;;;;;;7.38;3.60;;;16.20;99.90;;;;;;6252286;22;20007;-78
2022/05/31 09:33:40;;;;;;;10.27;4.10;;;16.20;99.90;;;;;;6250805;22;20007;-78
2022/05/31 09:36:27;;;;;;;7.35;4.10;;;16.20;99.90;;;;;;6164645;23;20491;-77
2022/05/31 09:39:00;;;;;;;7.47;3.90;;;16.10;99.90;;;;;;6249937;22;20043;-77
2022/05/31 09:41:32;;;;;;;9.05;4.05;;;16.10;99.90;;;;;;6250409;22;20065;-78
2022/05/31 09:44:23;;;;;;;7.18;3.80;;;16.00;99.90;;;;;;6277563;22;20004;-78
2022/05/31 09:46:59;;;;;;;10.77;5.00;;;16.00;99.90;;;;;;6250383;22;20015;-77
2022/05/31 09:49:33;;;;;;;7.32;4.25;;;16.00;99.90;;;;;;6278043;22;20083;-78
2022/05/31 09:51:59;;;;;;;6.78;3.42;;;16.00;99.90;;;;;;6250263;22;20014;-78
2022/05/31 09:57:28;;;;;;;6.80;2.92;;;16.10;99.90;;;;;;6277855;22;20394;-77
2022/05/31 10:00:04;;;;;;;7.65;3.35;;;16.30;99.90;;;;;;6250584;22;20019;-78
2022/05/31 10:02:36;;;;;;;8.18;3.58;;;16.40;99.90;;;;;;6250233;22;20012;-79
2022/05/31 10:05:21;;;;;;;8.05;3.67;;;16.50;99.90;;;;;;6277671;22;20015;-77
2022/05/31 10:07:48;;;;;;;6.07;3.57;;;16.50;99.90;;;;;;6224900;22;20012;-78
2022/05/31 10:10:24;;;;;;;6.68;3.40;;;16.40;99.90;;;;;;6250119;22;20095;-77
2022/05/31 10:12:53;;;;;;;6.03;3.08;;;16.40;99.90;;;;;;6250826;22;20014;-83
2022/05/31 10:15:44;;;;;;;6.38;2.92;;;16.30;99.90;;;;;;6277623;22;20057;-77
2022/05/31 10:18:22;;;;;;;5.63;2.83;;;16.30;99.90;;;;;;6251296;22;20015;-76
2022/05/31 10:21:07;;;;;;;7.05;3.20;;;16.20;99.90;;;;;;6277393;22;20046;-77
2022/05/31 10:23:43;;;;;;;7.03;2.80;;;16.30;99.90;;;;;;6277917;22;20343;-76
2022/05/31 10:26:27;;;;;;;7.32;3.22;;;16.30;99.90;;;;;;6249950;22;20313;-77
2022/05/31 10:28:57;;;;;;;6.85;3.42;;;16.30;99.90;;;;;;6250177;22;20095;-76
2022/05/31 10:31:35;;;;;;;6.55;3.17;;;16.30;99.90;;;;;;6277373;22;20008;-77
2022/05/31 10:34:22;;;;;;;4.38;2.55;;;16.30;99.90;;;;;;6250005;22;20007;-76
2022/05/31 10:36:54;;;;;;;5.75;2.90;;;16.40;99.90;;;;;;6277372;22;20083;-76
2022/05/31 10:39:34;;;;;;;6.93;3.22;;;16.70;99.90;;;;;;6276914;22;20016;-76
2022/05/31 10:42:02;;;;;;;6.82;3.35;;;17.00;99.90;;;;;;6224415;22;20019;-77
2022/05/31 10:44:33;;;;;;;8.25;4.03;;;17.30;99.90;;;;;;6277248;22;20007;-76
2022/05/31 10:47:13;;;;;;;7.70;4.13;;;17.60;99.90;;;;;;6249899;22;20129;-80
2022/05/31 10:49:41;;;;;;;6.82;3.42;;;17.90;99.90;;;;;;6226826;22;20014;-76
2022/05/31 10:52:07;;;;;;;7.80;3.67;;;17.90;99.90;;;;;;6249169;22;20012;-78
2022/05/31 10:54:55;;;;;;;8.02;4.07;;;17.90;99.90;;;;;;6249620;22;20014;-77
2022/05/31 10:57:32;;;;;;;6.55;3.40;;;17.70;99.90;;;;;;6277359;22;20080;-78
2022/05/31 11:00:08;;;;;;;7.63;4.03;;;17.50;99.90;;;;;;6277610;22;20318;-77
2022/05/31 11:03:07;;;;;;;7.25;3.58;;;17.30;99.90;;;;;;6249571;22;20011;-77
2022/05/31 11:06:01;;;;;;;9.75;3.25;;;17.20;99.90;;;;;;6249850;22;20019;-76
2022/05/31 11:11:35;;;;;;;6.97;3.97;;;16.90;99.90;;;;;;6277402;22;20015;-76
2022/05/31 11:14:19;;;;;;;7.35;3.40;;;16.70;99.90;;;;;;6249665;22;20446;-76
2022/05/31 11:17:21;;;;;;;6.75;3.20;;;16.50;99.90;;;;;;6249475;22;20051;-77
2022/05/31 11:20:10;;;;;;;6.93;3.58;;;16.40;99.90;;;;;;6242230;22;20015;-76
2022/05/31 11:22:54;;;;;;;7.57;3.58;;;16.20;99.90;;;;;;6249345;22;20072;-76
2022/05/31 11:25:31;;;;;;;7.22;3.20;;;16.20;99.90;;;;;;6277066;22;20011;-77
2022/05/31 11:28:37;;;;;;;8.82;4.03;;;16.10;99.90;;;;;;6251817;22;20051;-84
2022/05/31 11:31:24;;;;;;;8.03;3.50;;;16.00;99.90;;;;;;6225115;22;20012;-76
2022/05/31 11:34:10;;;;;;;8.07;3.85;;;15.90;99.90;;;;;;6277377;22;20321;-76
2022/05/31 11:36:58;;;;;;;7.78;4.15;;;15.90;99.90;;;;;;6249588;22;20090;-77
2022/05/31 11:39:37;;;;;;;9.35;3.97;;;15.90;99.90;;;;;;6249400;22;20008;-76
2022/05/31 11:42:18;;;;;;;8.82;4.03;;;15.80;99.90;;;;;;6249626;22;20334;-76
2022/05/31 11:44:53;;;;;;;8.77;3.97;;;15.80;99.90;;;;;;6277085;22;20426;-76
2022/05/31 11:47:18;;;;;;;7.93;3.63;;;15.80;99.90;;;;;;6249159;22;20020;-75
2022/05/31 11:49:56;;;;;;;7.63;4.05;;;15.80;99.90;;;;;;6249637;22;20035;-76
2022/05/31 11:52:30;;;;;;;7.80;4.35;;;15.80;99.90;;;;;;6249121;22;20046;-76
2022/05/31 11:55:30;;;;;;;5.83;3.73;;;15.80;99.90;;;;;;6249338;22;20026;-77
2022/05/31 11:58:10;;;;;;;6.45;3.75;;;15.80;99.90;;;;;;6229900;22;20054;-76
2022/05/31 12:01:03;;;;;;;6.65;3.13;;;15.90;99.90;;;;;;6248954;22;20066;-76
2022/05/31 12:03:56;;;;;;;8.15;3.80;;;15.90;99.90;;;;;;6219176;22;20051;-76
2022/05/31 12:06:43;;;;;;;7.18;4.00;;;15.90;99.90;;;;;;6252019;22;20410;-75
2022/05/31 12:09:17;;;;;;;11.75;4.78;;;15.90;99.90;;;;;;6226074;22;20098;-76
2022/05/31 12:11:55;;;;;;;9.18;4.50;;;16.00;99.90;;;;;;6251415;22;20330;-76
2022/05/31 12:14:22;;;;;;;9.25;4.65;;;16.00;99.90;;;;;;6251375;22;20014;-77
2022/05/31 12:16:49;;;;;;;9.95;4.68;;;16.00;99.90;;;;;;6251621;22;20019;-76
2022/05/31 12:19:41;;;;;;;11.05;4.75;;;15.90;99.90;;;;;;6251291;22;20061;-77
2022/05/31 12:22:10;;;;;;;7.90;4.57;;;15.90;99.90;;;;;;6251090;22;20019;-76
2022/05/31 12:24:45;;;;;;;9.02;4.60;;;15.90;99.90;;;;;;6251141;22;20035;-76
2022/05/31 12:27:18;;;;;;;10.25;5.13;;;15.90;99.90;;;;;;6251594;22;20090;-75
2022/05/31 12:30:06;;;;;;;9.50;4.65;;;15.80;99.90;;;;;;6279179;22;20014;-78
2022/05/31 12:32:39;;;;;;;9.38;4.40;;;15.80;99.90;;;;;;6251146;22;20061;-77
2022/05/31 12:35:09;;;;;;;8.18;5.07;;;15.80;99.90;;;;;;6251396;22;20016;-77
2022/05/31 12:38:00;;;;;;;10.45;4.68;;;15.80;99.90;;;;;;6251177;22;20018;-76
2022/05/31 12:40:36;;;;;;;12.73;4.80;;;15.80;99.90;;;;;;6234855;22;20047;-78
2022/05/31 12:43:14;;;;;;;9.48;4.00;;;15.70;99.90;;;;;;6278458;22;20393;-78
2022/05/31 12:45:42;;;;;;;10.65;4.57;;;15.60;99.90;;;;;;6251142;22;20309;-77
2022/05/31 12:48:14;;;;;;;9.52;4.63;;;15.60;99.90;;;;;;6251207;22;20078;-79
2022/05/31 12:50:51;;;;;;;10.90;5.10;;;15.60;99.90;;;;;;6250970;22;20011;-79
2022/05/31 12:53:20;;;;;;;9.02;4.47;;;15.60;99.90;;;;;;6251652;22;20326;-77
2022/05/31 12:55:46;;;;;;;7.70;4.43;;;15.50;99.90;;;;;;6251096;22;20104;-77
2022/05/31 12:58:28;;;;;;;7.63;4.18;;;15.50;99.90;;;;;;6250882;22;20341;-78
2022/05/31 13:01:13;;;;;;;8.45;4.30;;;15.50;99.90;;;;;;6250617;22;20345;-78
2022/05/31 13:03:51;;;;;;;10.07;4.60;;;15.50;99.90;;;;;;6250763;22;20065;-78
2022/05/31 13:06:17;;;;;;;6.40;4.25;;;15.50;99.90;;;;;;6250851;22;20345;-78
2022/05/31 13:08:52;;;;;;;9.93;4.43;;;15.50;99.90;;;;;;6250721;22;20050;-79
2022/05/31 13:19:56;;;;;;;8.15;4.70;;;15.50;99.90;;;;;;6250845;22;20019;-78
2022/05/31 13:22:22;;;;;;;7.70;4.80;;;15.50;99.90;;;;;;6250677;22;20020;-79
2022/05/31 13:25:01;;;;;;;10.32;5.70;;;15.50;99.90;;;;;;6277819;22;20162;-78
2022/05/31 13:27:30;;;;;;;10.98;5.32;;;15.50;99.90;;;;;;6251964;22;20008;-77
2022/05/31 13:30:17;;;;;;;7.80;5.32;;;15.50;99.90;;;;;;6277761;22;20008;-78
2022/05/31 13:32:44;;;;;;;7.53;4.82;;;15.50;99.90;;;;;;6250661;22;20012;-79
2022/05/31 13:35:24;;;;;;;9.63;5.68;;;15.50;99.90;;;;;;6250472;22;20052;-79
2022/05/31 13:38:01;;;;;;;8.13;5.07;;;15.50;99.90;;;;;;6225361;22;20018;-79
2022/05/31 13:40:42;;;;;;;12.63;4.97;;;15.50;99.90;;;;;;6250498;22;20110;-78
2022/05/31 13:43:21;;;;;;;8.40;4.35;;;15.50;99.90;;;;;;6250510;22;20015;-78
2022/05/31 13:45:53;;;;;;;8.00;4.38;;;15.50;99.90;;;;;;6250488;22;20024;-79
2022/05/31 13:48:22;;;;;;;8.52;4.20;;;15.50;99.90;;;;;;6250315;22;20022;-78
2022/05/31 13:51:00;;;;;;;8.63;3.97;;;15.50;99.90;;;;;;6250323;22;20014;-80
2022/05/31 13:53:32;;;;;;;10.18;4.80;;;15.60;99.90;;;;;;6250411;22;20016;-79
2022/05/31 13:55:59;;;;;;;8.45;4.53;;;15.60;99.90;;;;;;6250366;22;20086;-79
2022/05/31 13:58:34;;;;;;;8.18;4.60;;;15.60;99.90;;;;;;6250426;22;20027;-77
2022/05/31 14:01:03;;;;;;;10.13;5.68;;;15.60;99.90;;;;;;6250139;22;20022;-78
2022/05/31 14:03:39;;;;;;;10.40;5.72;;;15.50;99.90;;;;;;6250566;22;20015;-79
2022/05/31 14:06:16;;;;;;;10.32;6.30;;;15.40;99.90;;;;;;6251039;22;20015;-79
2022/05/31 14:08:49;;;;;;;9.75;5.53;;;15.30;99.90;;;;;;6250373;22;20347;-77
2022/05/31 14:11:29;;;;;;;10.05;6.55;;;15.30;99.90;;;;;;6225164;22;20012;-77
2022/05/31 14:13:58;;;;;;;11.93;6.57;;;15.20;99.90;;;;;;6250643;22;20014;-78
2022/05/31 14:16:41;;;;;;;9.65;6.38;;;15.20;99.90;;;;;;6277814;22;20003;-78
2022/05/31 14:19:19;;;;;;;12.18;7.50;;;15.10;99.90;;;;;;6278941;22;20011;-77
2022/05/31 14:21:48;;;;;;;11.23;7.00;;;15.20;99.90;;;;;;6253068;22;20444;-76
2022/05/31 14:24:19;;;;;;;10.63;6.82;;;15.20;99.90;;;;;;6252311;22;20438;-76
2022/05/31 14:26:48;;;;;;;9.80;6.35;;;15.30;99.90;;;;;;6252439;22;20012;-77
2022/05/31 14:29:23;;;;;;;10.70;6.95;;;15.40;99.90;;;;;;6253349;22;20074;-77
2022/05/31 14:32:07;;;;;;;9.30;6.35;;;15.50;99.90;;;;;;6277930;22;20117;-77
2022/05/31 14:34:38;;;;;;;13.18;7.15;;;15.60;99.90;;;;;;6277082;22;20306;-78
2022/05/31 14:37:05;;;;;;;13.07;6.93;;;15.70;99.90;;;;;;6277340;22;20341;-78
2022/05/31 14:39:33;;;;;;;11.95;6.75;;;15.80;99.90;;;;;;6249884;22;20020;-79
2022/05/31 14:41:59;;;;;;;15.85;6.72;;;15.90;99.90;;;;;;6249774;22;20503;-77
2022/05/31 14:44:47;;;;;;;13.35;6.90;;;15.90;99.90;;;;;;6276904;22;20015;-79
2022/05/31 14:47:24;;;;;;;9.95;6.82;;;16.00;99.90;;;;;;6249775;22;20058;-78
2022/05/31 14:50:03;;;;;;;12.75;6.95;;;16.00;99.90;;;;;;6249993;22;20004;-78
2022/05/31 14:52:41;;;;;;;12.40;6.90;;;16.00;99.90;;;;;;6249654;22;20083;-78
2022/05/31 14:55:30;;;;;;;11.15;7.18;;;15.80;99.90;;;;;;6277243;22;20021;-77
2022/05/31 15:00:54;;;;;;;7.32;5.03;;;15.80;99.90;;;;;;6249958;22;20024;-78
2022/05/31 15:03:30;;;;;;;8.65;5.13;;;15.80;99.90;;;;;;6276772;22;20461;-77
2022/05/31 15:06:05;;;;;;;8.55;4.97;;;15.70;99.90;;;;;;6224768;22;20431;-78
2022/05/31 15:08:35;;;;;;;8.13;4.90;;;15.70;99.90;;;;;;6250232;22;20050;-78
2022/05/31 15:19:40;;;;;;;6.65;5.38;;;15.70;99.90;;;;;;6276694;22;20023;-78
2022/05/31 15:22:07;;;;;;;8.73;5.35;;;15.80;99.90;;;;;;6252576;22;20513;-76
2022/05/31 15:24:42;;;;;;;9.07;5.15;;;15.80;99.90;;;;;;6255027;22;20351;-75
2022/05/31 15:27:24;;;;;;;6.07;4.68;;;15.80;99.90;;;;;;6250934;22;20059;-76
2022/05/31 15:29:53;;;;;;;9.30;4.82;;;15.90;99.90;;;;;;6250089;22;20011;-79
2022/05/31 15:32:20;;;;;;;7.60;5.20;;;16.00;99.90;;;;;;6249263;22;20286;-79
2022/05/31 15:34:46;;;;;;;7.97;5.72;;;16.00;99.90;;;;;;6249644;22;20043;-77
2022/05/31 15:37:13;;;;;;;7.13;4.72;;;16.00;99.90;;;;;;6249382;22;20065;-78
2022/05/31 15:39:39;;;;;;;8.23;5.28;;;16.00;99.90;;;;;;6249469;22;20008;-77
2022/05/31 15:42:09;;;;;;;9.32;5.25;;;16.00;99.90;;;;;;6249456;22;20015;-80
2022/05/31 15:44:36;;;;;;;12.68;5.43;;;16.00;99.90;;;;;;6249452;22;20011;-78
2022/05/31 15:47:03;;;;;;;10.38;6.20;;;15.90;99.90;;;;;;6249295;22;20043;-78
2022/05/31 15:49:29;;;;;;;9.73;5.38;;;16.00;99.90;;;;;;6249621;22;20339;-79
2022/05/31 15:51:55;;;;;;;9.93;5.60;;;16.10;99.90;;;;;;6276257;22;20007;-77
2022/05/31 15:54:29;;;;;;;11.00;5.15;;;16.10;99.90;;;;;;6276798;22;20037;-77
2022/05/31 15:56:55;;;;;;;8.55;5.72;;;16.10;99.90;;;;;;6276735;22;20007;-77
2022/05/31 15:59:40;;;;;;;8.65;4.95;;;16.10;99.90;;;;;;6249294;22;20015;-77
2022/05/31 16:02:07;;;;;;;8.07;4.50;;;16.10;99.90;;;;;;6271666;22;20011;-78
2022/05/31 16:04:34;;;;;;;11.02;5.10;;;16.20;99.90;;;;;;6275382;22;20011;-77
2022/05/31 16:07:00;;;;;;;9.52;5.10;;;16.20;99.90;;;;;;6276651;22;20016;-78
2022/05/31 16:09:30;;;;;;;8.23;4.80;;;16.20;99.90;;;;;;6249188;22;20008;-77
2022/05/31 16:11:56;;;;;;;7.13;4.60;;;16.30;99.90;;;;;;6249339;22;20015;-78
2022/05/31 16:14:25;;;;;;;7.65;4.80;;;16.20;99.90;;;;;;6276225;22;20012;-78
2022/05/31 16:16:54;;;;;;;6.57;4.32;;;16.20;99.90;;;;;;6276991;22;20015;-78
2022/05/31 16:19:21;;;;;;;6.68;4.20;;;16.30;99.90;;;;;;6249202;22;20115;-78
2022/05/31 16:21:47;;;;;;;5.68;4.28;;;16.20;99.90;;;;;;6249201;22;20018;-77
2022/05/31 16:24:17;;;;;;;8.90;4.63;;;16.20;99.90;;;;;;6249152;22;20376;-76
2022/05/31 16:26:43;;;;;;;9.57;4.72;;;16.20;99.90;;;;;;6224149;22;20016;-78
2022/05/31 16:29:10;;;;;;;6.50;4.68;;;16.20;99.90;;;;;;6276553;22;20137;-78
2022/05/31 16:31:37;;;;;;;8.52;4.60;;;16.10;99.90;;;;;;6249036;22;20087;-78
2022/05/31 16:34:02;;;;;;;6.53;4.60;;;16.20;99.90;;;;;;6276534;22;20091;-75
2022/05/31 16:36:29;;;;;;;8.02;4.07;;;16.10;99.90;;;;;;6276299;22;20035;-78
2022/05/31 16:41:41;;;;;;;6.47;3.70;;;16.10;99.90;;;;;;6276148;22;20342;-77
2022/05/31 16:44:07;;;;;;;6.50;4.90;;;16.20;99.90;;;;;;6249184;22;20380;-77
2022/05/31 16:46:34;;;;;;;9.35;7.10;;;16.00;99.90;;;;;;6223738;22;20019;-77
2022/05/31 16:49:00;;;;;;;11.40;7.57;;;16.00;99.90;;;;;;6250117;22;20016;-77
2022/05/31 16:51:36;;;;;;;10.13;7.18;;;15.80;99.90;;;;;;6250924;22;20315;-78
2022/05/31 16:54:01;;;;;;;12.13;7.55;;;15.70;99.90;;;;;;6250994;22;20012;-78
2022/05/31 16:56:53;;;;;;;8.55;6.95;;;15.50;99.90;;;;;;6277978;22;20015;-77
2022/05/31 16:59:19;;;;;;;8.30;6.95;;;15.30;99.90;;;;;;6238743;22;20376;-78